createdAt,value
2019-03-09T00:00:48.217Z,34.38
2019-03-09T00:01:55.066Z,34.69
2019-03-09T00:02:49.294Z,34.59
2019-03-09T00:03:48.293Z,34.48
2019-03-09T00:04:48.096Z,34.17
2019-03-09T00:05:48.092Z,34.69
2019-03-09T00:06:48.172Z,34.38
2019-03-09T00:07:48.081Z,34.48
2019-03-09T00:08:48.465Z,34.48
2019-03-09T00:09:48.302Z,34.69
2019-03-09T00:10:48.594Z,34.69
2019-03-09T00:11:54.615Z,34.28
2019-03-09T00:12:49.404Z,34.59
2019-03-09T00:13:48.023Z,34.59
2019-03-09T00:14:48.061Z,34.48
2019-03-09T00:15:47.972Z,34.80
2019-03-09T00:16:48.055Z,34.17
2019-03-09T00:17:48.402Z,34.69
2019-03-09T00:18:47.955Z,34.69
2019-03-09T00:19:48.373Z,34.17
2019-03-09T00:20:48.045Z,34.80
2019-03-09T00:21:55.113Z,34.38
2019-03-09T00:22:48.943Z,34.69
2019-03-09T00:23:47.996Z,34.80
2019-03-09T00:24:47.930Z,34.59
2019-03-09T00:25:47.871Z,34.59
2019-03-09T00:26:47.927Z,34.17
2019-03-09T00:27:47.903Z,34.38
2019-03-09T00:28:47.914Z,34.80
2019-03-09T00:29:47.941Z,34.48
2019-03-09T00:30:47.825Z,34.80
2019-03-09T00:31:47.814Z,34.48
2019-03-09T00:32:47.995Z,34.69
2019-03-09T00:33:47.794Z,34.69
2019-03-09T00:34:50.584Z,34.08
2019-03-09T00:35:50.764Z,34.80
2019-03-09T00:36:48.752Z,34.59
2019-03-09T00:37:48.454Z,34.48
2019-03-09T00:38:49.376Z,34.08
2019-03-09T00:39:49.635Z,34.69
2019-03-09T00:40:49.123Z,34.59
2019-03-09T00:41:52.851Z,34.69
2019-03-09T00:42:49.265Z,34.48
2019-03-09T00:43:47.734Z,34.38
2019-03-09T00:44:47.789Z,34.61
2019-03-09T00:45:47.663Z,34.69
2019-03-09T00:46:47.662Z,34.69
2019-03-09T00:47:47.675Z,34.80
2019-03-09T00:48:47.614Z,34.69
2019-03-09T00:49:47.622Z,34.48
2019-03-09T00:50:47.751Z,34.50
2019-03-09T00:51:47.594Z,34.59
2019-03-09T00:52:47.583Z,34.89
2019-03-09T00:53:47.683Z,35.10
2019-03-09T00:54:47.599Z,34.69
2019-03-09T00:55:47.597Z,34.80
2019-03-09T00:56:47.635Z,34.89
2019-03-09T00:57:47.566Z,34.59
2019-03-09T00:58:47.521Z,34.70
2019-03-09T00:59:47.561Z,34.80
2019-03-09T01:00:47.503Z,34.69
2019-03-09T01:01:47.534Z,34.81
2019-03-09T01:02:47.544Z,34.61
2019-03-09T01:03:47.462Z,34.80
2019-03-09T01:04:47.494Z,34.69
2019-03-09T01:05:47.463Z,34.61
2019-03-09T01:06:47.423Z,34.89
2019-03-09T01:07:47.452Z,34.59
2019-03-09T01:08:47.503Z,34.80
2019-03-09T01:09:47.438Z,34.81
2019-03-09T01:10:47.505Z,34.69
2019-03-09T01:11:47.427Z,34.70
2019-03-09T01:12:47.373Z,34.69
2019-03-09T01:13:47.353Z,34.61
2019-03-09T01:14:47.460Z,34.69
2019-03-09T01:15:47.362Z,34.61
2019-03-09T01:16:47.385Z,34.59
2019-03-09T01:17:47.354Z,34.89
2019-03-09T01:18:47.384Z,34.70
2019-03-09T01:19:47.330Z,34.89
2019-03-09T01:20:47.422Z,34.40
2019-03-09T01:21:47.328Z,34.70
2019-03-09T01:22:47.264Z,34.38
2019-03-09T01:23:47.244Z,34.61
2019-03-09T01:24:47.231Z,35.02
2019-03-09T01:25:47.232Z,35.02
2019-03-09T01:26:47.265Z,34.70
2019-03-09T01:27:47.203Z,34.40
2019-03-09T01:28:47.301Z,34.61
2019-03-09T01:29:47.222Z,34.81
2019-03-09T01:30:47.212Z,34.70
2019-03-09T01:31:47.155Z,34.81
2019-03-09T01:32:47.252Z,34.81
2019-03-09T01:33:47.175Z,34.61
2019-03-09T01:34:47.174Z,34.81
2019-03-09T01:35:47.122Z,34.91
2019-03-09T01:36:47.190Z,34.81
2019-03-09T01:37:47.135Z,35.33
2019-03-09T01:38:47.142Z,35.22
2019-03-09T01:39:47.173Z,34.70
2019-03-09T01:40:47.074Z,34.81
2019-03-09T01:41:47.092Z,34.40
2019-03-09T01:42:47.094Z,34.40
2019-03-09T01:43:47.013Z,34.61
2019-03-09T01:44:47.212Z,34.91
2019-03-09T01:45:47.034Z,34.91
2019-03-09T01:46:47.034Z,34.61
2019-03-09T01:47:46.983Z,34.61
2019-03-09T01:48:47.010Z,34.72
2019-03-09T01:49:46.986Z,34.91
2019-03-09T01:50:47.034Z,34.91
2019-03-09T01:51:46.933Z,34.83
2019-03-09T01:52:46.932Z,34.31
2019-03-09T01:53:46.912Z,34.81
2019-03-09T01:54:46.935Z,34.61
2019-03-09T01:55:46.902Z,34.70
2019-03-09T01:56:46.983Z,34.70
2019-03-09T01:57:46.878Z,34.81
2019-03-09T01:58:46.864Z,34.09
2019-03-09T01:59:46.875Z,35.74
2019-03-09T02:00:46.853Z,34.40
2019-03-09T02:01:46.854Z,35.33
2019-03-09T02:02:46.932Z,34.50
2019-03-09T02:03:46.814Z,33.98
2019-03-09T02:04:46.800Z,35.33
2019-03-09T02:05:46.784Z,34.61
2019-03-09T02:06:46.842Z,35.33
2019-03-09T02:07:46.772Z,35.53
2019-03-09T02:08:46.820Z,34.19
2019-03-09T02:09:46.730Z,35.33
2019-03-09T02:10:46.784Z,35.22
2019-03-09T02:11:46.732Z,35.02
2019-03-09T02:12:46.774Z,34.19
2019-03-09T02:13:46.774Z,35.33
2019-03-09T02:14:46.922Z,35.02
2019-03-09T02:15:46.674Z,33.98
2019-03-09T02:16:46.692Z,35.22
2019-03-09T02:17:46.722Z,35.33
2019-03-09T02:18:46.682Z,34.21
2019-03-09T02:19:46.652Z,34.19
2019-03-09T02:20:46.740Z,35.33
2019-03-09T02:21:46.631Z,35.43
2019-03-09T02:22:46.645Z,35.22
2019-03-09T02:23:46.622Z,35.43
2019-03-09T02:24:46.585Z,34.41
2019-03-09T02:25:46.652Z,34.19
2019-03-09T02:26:46.612Z,35.33
2019-03-09T02:27:46.574Z,35.12
2019-03-09T02:28:46.568Z,35.34
2019-03-09T02:29:46.576Z,35.44
2019-03-09T02:30:46.572Z,35.65
2019-03-09T02:31:46.492Z,35.43
2019-03-09T02:32:46.585Z,35.74
2019-03-09T02:33:46.562Z,35.24
2019-03-09T02:34:46.503Z,35.24
2019-03-09T02:35:46.530Z,36.16
2019-03-09T02:36:46.509Z,35.24
2019-03-09T02:37:46.463Z,35.44
2019-03-09T02:38:46.571Z,35.14
2019-03-09T02:39:46.454Z,35.24
2019-03-09T02:40:46.412Z,35.02
2019-03-09T02:41:46.399Z,35.65
2019-03-09T02:42:46.412Z,35.24
2019-03-09T02:43:46.401Z,35.24
2019-03-09T02:44:46.464Z,35.65
2019-03-09T02:45:46.441Z,35.24
2019-03-09T02:46:46.336Z,35.34
2019-03-09T02:47:46.362Z,34.83
2019-03-09T02:48:46.404Z,35.24
2019-03-09T02:49:46.366Z,35.34
2019-03-09T02:50:46.352Z,35.22
2019-03-09T02:51:46.331Z,35.24
2019-03-09T02:52:46.784Z,35.34
2019-03-09T02:53:46.258Z,35.53
2019-03-09T02:54:46.353Z,35.24
2019-03-09T02:55:46.255Z,35.24
2019-03-09T02:56:46.327Z,35.34
2019-03-09T02:57:46.217Z,35.22
2019-03-09T02:58:46.252Z,35.75
2019-03-09T02:59:46.215Z,34.93
2019-03-09T03:00:46.185Z,35.63
2019-03-09T03:01:46.249Z,35.65
2019-03-09T03:02:46.232Z,35.44
2019-03-09T03:03:46.153Z,35.55
2019-03-09T03:04:46.193Z,35.86
2019-03-09T03:05:46.125Z,35.65
2019-03-09T03:06:46.144Z,35.96
2019-03-09T03:07:46.354Z,35.44
2019-03-09T03:08:46.322Z,35.65
2019-03-09T03:09:46.096Z,35.34
2019-03-09T03:10:46.152Z,36.37
2019-03-09T03:11:46.100Z,35.34
2019-03-09T03:12:46.061Z,35.55
2019-03-09T03:13:46.070Z,35.55
2019-03-09T03:14:46.089Z,35.44
2019-03-09T03:15:46.101Z,35.34
2019-03-09T03:16:46.053Z,35.24
2019-03-09T03:17:46.052Z,35.14
2019-03-09T03:18:45.987Z,35.86
2019-03-09T03:19:45.982Z,35.55
2019-03-09T03:20:46.094Z,35.96
2019-03-09T03:21:46.021Z,35.55
2019-03-09T03:22:45.944Z,35.65
2019-03-09T03:23:46.004Z,35.75
2019-03-09T03:24:45.920Z,35.86
2019-03-09T03:25:45.944Z,35.65
2019-03-09T03:26:46.027Z,35.86
2019-03-09T03:27:45.941Z,35.34
2019-03-09T03:28:45.886Z,35.65
2019-03-09T03:29:45.875Z,35.44
2019-03-09T03:30:45.996Z,35.75
2019-03-09T03:31:45.866Z,35.44
2019-03-09T03:32:45.950Z,35.65
2019-03-09T03:33:45.931Z,35.86
2019-03-09T03:34:45.821Z,35.75
2019-03-09T03:35:45.791Z,35.65
2019-03-09T03:36:45.813Z,35.65
2019-03-09T03:37:45.827Z,35.75
2019-03-09T03:38:45.903Z,35.75
2019-03-09T03:39:45.805Z,35.75
2019-03-09T03:40:45.933Z,35.65
2019-03-09T03:41:45.776Z,35.65
2019-03-09T03:42:45.731Z,35.86
2019-03-09T03:43:45.754Z,35.34
2019-03-09T03:44:45.823Z,35.44
2019-03-09T03:45:45.734Z,35.44
2019-03-09T03:46:45.737Z,35.44
2019-03-09T03:47:45.697Z,35.86
2019-03-09T03:48:45.663Z,35.44
2019-03-09T03:49:45.678Z,35.75
2019-03-09T03:50:45.723Z,35.55
2019-03-09T03:51:45.655Z,35.44
2019-03-09T03:52:45.653Z,35.55
2019-03-09T03:53:45.635Z,35.75
2019-03-09T03:54:45.631Z,35.34
2019-03-09T03:55:45.612Z,35.75
2019-03-09T03:56:47.435Z,35.44
2019-03-09T03:57:45.597Z,35.67
2019-03-09T03:58:45.561Z,35.65
2019-03-09T03:59:45.534Z,35.87
2019-03-09T04:00:45.582Z,35.34
2019-03-09T04:01:45.554Z,35.86
2019-03-09T04:02:45.682Z,35.44
2019-03-09T04:03:45.505Z,35.67
2019-03-09T04:04:45.562Z,35.65
2019-03-09T04:05:45.515Z,35.65
2019-03-09T04:06:45.496Z,35.55
2019-03-09T04:07:45.523Z,35.96
2019-03-09T04:08:45.527Z,35.44
2019-03-09T04:09:45.423Z,35.55
2019-03-09T04:10:45.461Z,35.44
2019-03-09T04:11:45.417Z,35.67
2019-03-09T04:12:45.515Z,35.65
2019-03-09T04:13:45.482Z,35.67
2019-03-09T04:14:45.454Z,35.75
2019-03-09T04:15:45.414Z,35.75
2019-03-09T04:16:45.458Z,35.14
2019-03-09T04:17:45.376Z,35.44
2019-03-09T04:18:45.358Z,35.24
2019-03-09T04:19:45.370Z,35.55
2019-03-09T04:20:45.423Z,35.67
2019-03-09T04:21:45.309Z,35.65
2019-03-09T04:22:45.295Z,35.75
2019-03-09T04:23:45.304Z,35.87
2019-03-09T04:24:45.265Z,35.75
2019-03-09T04:25:45.297Z,35.44
2019-03-09T04:26:45.312Z,35.75
2019-03-09T04:27:45.253Z,35.14
2019-03-09T04:28:45.308Z,35.97
2019-03-09T04:29:45.218Z,35.86
2019-03-09T04:30:45.302Z,35.65
2019-03-09T04:31:45.243Z,35.86
2019-03-09T04:32:45.334Z,35.75
2019-03-09T04:33:45.173Z,35.75
2019-03-09T04:34:45.205Z,35.75
2019-03-09T04:35:45.194Z,35.97
2019-03-09T04:36:45.203Z,35.46
2019-03-09T04:37:45.171Z,35.75
2019-03-09T04:38:45.195Z,35.55
2019-03-09T04:39:45.135Z,35.86
2019-03-09T04:40:45.112Z,35.75
2019-03-09T04:41:45.110Z,35.44
2019-03-09T04:42:45.112Z,35.65
2019-03-09T04:43:45.144Z,35.75
2019-03-09T04:44:45.242Z,35.65
2019-03-09T04:45:45.051Z,35.44
2019-03-09T04:46:45.042Z,35.86
2019-03-09T04:47:45.115Z,35.65
2019-03-09T04:48:45.003Z,35.96
2019-03-09T04:49:45.035Z,35.96
2019-03-09T04:50:45.103Z,35.65
2019-03-09T04:51:47.244Z,35.14
2019-03-09T04:52:44.966Z,35.44
2019-03-09T04:53:45.010Z,35.44
2019-03-09T04:54:44.942Z,35.75
2019-03-09T04:55:44.968Z,35.44
2019-03-09T04:56:44.977Z,35.24
2019-03-09T04:57:44.940Z,35.86
2019-03-09T04:58:44.934Z,35.75
2019-03-09T04:59:44.893Z,35.65
2019-03-09T05:00:46.744Z,35.55
2019-03-09T05:01:44.880Z,35.75
2019-03-09T05:02:44.932Z,35.57
2019-03-09T05:03:44.875Z,35.44
2019-03-09T05:04:44.832Z,35.75
2019-03-09T05:05:44.823Z,35.34
2019-03-09T05:06:44.874Z,35.14
2019-03-09T05:07:44.792Z,35.55
2019-03-09T05:08:44.932Z,35.75
2019-03-09T05:09:44.781Z,35.77
2019-03-09T05:10:46.933Z,35.67
2019-03-09T05:11:44.751Z,35.86
2019-03-09T05:12:44.782Z,35.34
2019-03-09T05:13:44.778Z,35.44
2019-03-09T05:14:44.886Z,35.44
2019-03-09T05:15:44.733Z,35.77
2019-03-09T05:16:44.694Z,35.55
2019-03-09T05:17:49.523Z,35.44
2019-03-09T05:18:55.626Z,35.57
2019-03-09T05:19:54.202Z,35.65
2019-03-09T05:20:58.148Z,35.96
2019-03-09T05:21:56.185Z,35.55
2019-03-09T05:22:48.475Z,35.44
2019-03-09T05:23:45.597Z,35.75
2019-03-09T05:24:53.213Z,35.77
2019-03-09T05:25:50.084Z,35.67
2019-03-09T05:26:56.273Z,35.65
2019-03-09T05:27:49.682Z,35.75
2019-03-09T05:28:56.104Z,35.75
2019-03-09T05:29:57.434Z,35.86
2019-03-09T05:30:57.152Z,35.44
2019-03-09T05:31:56.665Z,35.65
2019-03-09T05:32:57.443Z,35.44
2019-03-09T05:33:51.404Z,35.55
2019-03-09T05:34:55.172Z,35.67
2019-03-09T05:35:51.153Z,35.77
2019-03-09T05:36:45.533Z,35.55
2019-03-09T05:37:55.292Z,35.36
2019-03-09T05:38:57.625Z,35.34
2019-03-09T05:39:45.502Z,35.14
2019-03-09T05:40:52.392Z,35.65
2019-03-09T05:41:58.724Z,35.55
2019-03-09T05:42:56.465Z,35.86
2019-03-09T05:43:53.564Z,35.77
2019-03-09T05:44:58.442Z,35.75
2019-03-09T05:45:55.692Z,35.77
2019-03-09T05:46:54.894Z,35.55
2019-03-09T05:47:56.407Z,35.34
2019-03-09T05:48:56.392Z,35.55
2019-03-09T05:49:54.593Z,35.96
2019-03-09T05:50:53.654Z,35.75
2019-03-09T05:51:45.919Z,35.86
2019-03-09T05:52:53.641Z,35.55
2019-03-09T05:53:54.955Z,35.44
2019-03-09T05:54:45.361Z,35.65
2019-03-09T05:55:44.372Z,35.55
2019-03-09T05:56:44.279Z,35.34
2019-03-09T05:57:55.893Z,35.55
2019-03-09T05:58:45.307Z,35.86
2019-03-09T05:59:44.365Z,35.44
2019-03-09T06:00:50.903Z,35.65
2019-03-09T06:01:45.402Z,35.55
2019-03-09T06:02:45.072Z,35.34
2019-03-09T06:03:46.733Z,35.34
2019-03-09T06:04:46.351Z,35.44
2019-03-09T06:05:53.821Z,35.75
2019-03-09T06:06:47.694Z,35.24
2019-03-09T06:07:53.983Z,35.25
2019-03-09T06:08:45.309Z,35.24
2019-03-09T06:09:45.252Z,35.24
2019-03-09T06:10:54.464Z,35.44
2019-03-09T06:11:48.754Z,35.86
2019-03-09T06:12:46.462Z,35.67
2019-03-09T06:13:46.182Z,35.24
2019-03-09T06:14:55.173Z,35.03
2019-03-09T06:15:45.091Z,35.34
2019-03-09T06:16:44.081Z,35.96
2019-03-09T06:17:48.023Z,35.55
2019-03-09T06:18:49.404Z,35.44
2019-03-09T06:19:44.383Z,35.55
2019-03-09T06:20:51.791Z,35.77
2019-03-09T06:21:49.941Z,35.75
2019-03-09T06:22:45.983Z,35.44
2019-03-09T06:23:44.363Z,35.75
2019-03-09T06:24:54.901Z,36.27
2019-03-09T06:25:45.053Z,35.65
2019-03-09T06:26:46.478Z,35.24
2019-03-09T06:27:54.573Z,35.03
2019-03-09T06:28:45.293Z,35.34
2019-03-09T06:29:44.149Z,35.03
2019-03-09T06:30:47.288Z,35.14
2019-03-09T06:31:48.352Z,36.16
2019-03-09T06:32:54.291Z,35.34
2019-03-09T06:33:45.201Z,35.44
2019-03-09T06:34:43.841Z,34.93
2019-03-09T06:35:44.114Z,35.14
2019-03-09T06:36:47.060Z,34.93
2019-03-09T06:37:50.151Z,35.24
2019-03-09T06:38:48.115Z,35.24
2019-03-09T06:39:45.143Z,34.50
2019-03-09T06:40:50.531Z,35.63
2019-03-09T06:41:47.597Z,35.14
2019-03-09T06:42:43.769Z,35.33
2019-03-09T06:43:43.749Z,34.00
2019-03-09T06:44:46.013Z,34.70
2019-03-09T06:45:53.004Z,34.81
2019-03-09T06:46:45.453Z,34.62
2019-03-09T06:47:47.631Z,34.93
2019-03-09T06:48:52.043Z,34.83
2019-03-09T06:49:46.974Z,34.72
2019-03-09T06:50:46.041Z,34.00
2019-03-09T06:51:44.911Z,34.11
2019-03-09T06:52:45.113Z,34.93
2019-03-09T06:53:50.456Z,35.34
2019-03-09T06:54:47.193Z,34.40
2019-03-09T06:55:43.659Z,35.24
2019-03-09T06:56:44.395Z,34.83
2019-03-09T06:57:53.983Z,34.83
2019-03-09T06:58:44.793Z,34.81
2019-03-09T06:59:46.084Z,34.91
2019-03-09T07:00:49.833Z,34.62
2019-03-09T07:01:48.483Z,34.40
2019-03-09T07:02:43.691Z,34.81
2019-03-09T07:03:45.371Z,34.70
2019-03-09T07:04:50.702Z,34.61
2019-03-09T07:05:47.732Z,34.50
2019-03-09T07:06:43.970Z,34.61
2019-03-09T07:07:44.962Z,34.81
2019-03-09T07:08:54.436Z,35.12
2019-03-09T07:09:44.594Z,34.70
2019-03-09T07:10:50.654Z,34.70
2019-03-09T07:11:50.581Z,34.91
2019-03-09T07:12:44.493Z,34.70
2019-03-09T07:13:52.333Z,34.61
2019-03-09T07:14:55.313Z,34.61
2019-03-09T07:15:48.985Z,34.61
2019-03-09T07:16:43.390Z,34.70
2019-03-09T07:17:45.441Z,34.91
2019-03-09T07:18:44.883Z,35.02
2019-03-09T07:19:43.361Z,34.50
2019-03-09T07:20:48.475Z,34.61
2019-03-09T07:21:44.541Z,34.81
2019-03-09T07:22:44.983Z,34.61
2019-03-09T07:23:50.613Z,34.81
2019-03-09T07:24:46.382Z,34.40
2019-03-09T07:25:48.642Z,34.70
2019-03-09T07:26:52.224Z,34.70
2019-03-09T07:27:54.054Z,34.61
2019-03-09T07:28:44.259Z,34.91
2019-03-09T07:29:45.541Z,34.61
2019-03-09T07:30:53.725Z,34.19
2019-03-09T07:31:48.444Z,34.61
2019-03-09T07:32:43.232Z,34.70
2019-03-09T07:33:47.221Z,34.70
2019-03-09T07:34:49.314Z,34.30
2019-03-09T07:35:44.257Z,34.59
2019-03-09T07:36:43.249Z,34.61
2019-03-09T07:37:48.761Z,34.70
2019-03-09T07:38:56.113Z,34.80
2019-03-09T07:39:44.342Z,34.80
2019-03-09T07:40:50.883Z,34.81
2019-03-09T07:41:46.721Z,34.70
2019-03-09T07:42:44.453Z,34.48
2019-03-09T07:43:47.042Z,34.81
2019-03-09T07:44:52.103Z,34.38
2019-03-09T07:45:44.112Z,34.28
2019-03-09T07:46:44.880Z,34.69
2019-03-09T07:47:50.931Z,33.66
2019-03-09T07:48:44.231Z,33.56
2019-03-09T07:49:43.034Z,34.38
2019-03-09T07:50:51.823Z,34.80
2019-03-09T07:51:47.783Z,34.59
2019-03-09T07:52:43.072Z,33.76
2019-03-09T07:53:44.295Z,33.97
2019-03-09T07:54:44.053Z,34.17
2019-03-09T07:55:53.760Z,33.76
2019-03-09T07:56:44.071Z,34.17
2019-03-09T07:57:43.214Z,34.38
2019-03-09T07:58:45.813Z,34.16
2019-03-09T07:59:44.124Z,34.28
2019-03-09T08:00:47.413Z,34.08
2019-03-09T08:01:44.113Z,34.06
2019-03-09T08:02:50.764Z,34.08
2019-03-09T08:03:44.401Z,33.34
2019-03-09T08:04:43.663Z,34.06
2019-03-09T08:05:45.246Z,33.23
2019-03-09T08:06:43.273Z,33.85
2019-03-09T08:07:42.863Z,33.54
2019-03-09T08:08:43.041Z,34.06
2019-03-09T08:09:44.153Z,33.75
2019-03-09T08:10:44.851Z,33.34
2019-03-09T08:11:42.811Z,33.13
2019-03-09T08:12:42.793Z,33.95
2019-03-09T08:13:46.263Z,33.54
2019-03-09T08:14:42.901Z,33.95
2019-03-09T08:15:42.808Z,33.65
2019-03-09T08:16:42.754Z,33.53
2019-03-09T08:17:43.203Z,33.65
2019-03-09T08:18:45.907Z,33.94
2019-03-09T08:19:42.762Z,33.94
2019-03-09T08:20:47.384Z,33.63
2019-03-09T08:21:43.157Z,33.73
2019-03-09T08:22:47.626Z,33.85
2019-03-09T08:23:42.660Z,33.95
2019-03-09T08:24:42.671Z,33.73
2019-03-09T08:25:43.956Z,33.73
2019-03-09T08:26:45.501Z,33.63
2019-03-09T08:27:46.544Z,33.53
2019-03-09T08:28:46.652Z,34.25
2019-03-09T08:29:49.711Z,33.63
2019-03-09T08:30:43.584Z,33.63
2019-03-09T08:31:42.642Z,33.22
2019-03-09T08:32:43.973Z,33.84
2019-03-09T08:33:43.593Z,33.63
2019-03-09T08:34:50.175Z,33.42
2019-03-09T08:35:43.571Z,33.22
2019-03-09T08:36:42.535Z,33.63
2019-03-09T08:37:43.475Z,33.53
2019-03-09T08:38:43.222Z,32.40
2019-03-09T08:39:48.381Z,32.60
2019-03-09T08:40:46.206Z,32.40
2019-03-09T08:41:42.653Z,32.60
2019-03-09T08:42:42.863Z,32.70
2019-03-09T08:43:47.517Z,32.81
2019-03-09T08:44:43.558Z,32.60
2019-03-09T08:45:42.923Z,32.70
2019-03-09T08:46:42.768Z,32.81
2019-03-09T08:47:51.606Z,32.69
2019-03-09T08:48:44.963Z,33.31
2019-03-09T08:49:42.402Z,33.10
2019-03-09T08:50:49.650Z,33.01
2019-03-09T08:51:44.134Z,33.10
2019-03-09T08:52:42.464Z,33.41
2019-03-09T08:53:44.412Z,33.41
2019-03-09T08:54:43.929Z,32.90
2019-03-09T08:55:42.361Z,33.00
2019-03-09T08:56:43.073Z,32.90
2019-03-09T08:57:43.035Z,33.00
2019-03-09T08:58:47.803Z,32.90
2019-03-09T08:59:43.376Z,33.31
2019-03-09T09:00:42.949Z,33.31
2019-03-09T09:01:42.304Z,33.10
2019-03-09T09:02:42.336Z,33.31
2019-03-09T09:03:45.512Z,32.28
2019-03-09T09:04:42.236Z,33.20
2019-03-09T09:05:42.262Z,32.07
2019-03-09T09:06:42.253Z,33.20
2019-03-09T09:07:43.186Z,32.07
2019-03-09T09:08:48.921Z,32.90
2019-03-09T09:09:43.204Z,32.28
2019-03-09T09:10:45.893Z,32.06
2019-03-09T09:11:42.433Z,32.07
2019-03-09T09:12:45.586Z,32.18
2019-03-09T09:13:42.169Z,32.28
2019-03-09T09:14:42.232Z,32.37
2019-03-09T09:15:42.133Z,32.26
2019-03-09T09:16:42.085Z,32.37
2019-03-09T09:17:42.861Z,32.26
2019-03-09T09:18:42.061Z,31.97
2019-03-09T09:19:42.042Z,32.37
2019-03-09T09:20:42.110Z,32.98
2019-03-09T09:21:42.071Z,32.37
2019-03-09T09:22:42.624Z,32.26
2019-03-09T09:23:42.704Z,32.37
2019-03-09T09:24:46.356Z,32.16
2019-03-09T09:25:42.354Z,32.57
2019-03-09T09:26:42.424Z,32.57
2019-03-09T09:27:42.287Z,32.56
2019-03-09T09:28:44.224Z,32.35
2019-03-09T09:29:42.031Z,32.37
2019-03-09T09:30:41.960Z,32.45
2019-03-09T09:31:41.944Z,32.37
2019-03-09T09:32:42.202Z,31.85
2019-03-09T09:33:42.157Z,32.25
2019-03-09T09:34:42.852Z,32.87
2019-03-09T09:35:47.211Z,32.25
2019-03-09T09:36:46.914Z,32.15
2019-03-09T09:37:43.174Z,32.56
2019-03-09T09:38:41.963Z,31.63
2019-03-09T09:39:46.784Z,32.04
2019-03-09T09:40:44.314Z,32.25
2019-03-09T09:41:43.245Z,32.56
2019-03-09T09:42:41.816Z,32.23
2019-03-09T09:43:42.132Z,32.23
2019-03-09T09:44:43.736Z,32.23
2019-03-09T09:45:46.173Z,32.34
2019-03-09T09:46:44.334Z,32.34
2019-03-09T09:47:42.933Z,32.34
2019-03-09T09:48:47.304Z,32.34
2019-03-09T09:49:43.054Z,32.23
2019-03-09T09:50:45.582Z,32.34
2019-03-09T09:51:42.392Z,32.25
2019-03-09T09:52:46.633Z,32.15
2019-03-09T09:53:42.562Z,32.15
2019-03-09T09:54:41.865Z,32.44
2019-03-09T09:55:41.912Z,32.45
2019-03-09T09:56:47.135Z,32.76
2019-03-09T09:57:47.795Z,32.13
2019-03-09T09:58:42.636Z,32.25
2019-03-09T09:59:41.632Z,32.64
2019-03-09T10:00:46.951Z,32.44
2019-03-09T10:01:47.722Z,32.54
2019-03-09T10:02:47.937Z,32.44
2019-03-09T10:03:45.634Z,32.54
2019-03-09T10:04:48.112Z,32.54
2019-03-09T10:05:42.572Z,32.54
2019-03-09T10:06:41.613Z,32.54
2019-03-09T10:07:43.834Z,31.31
2019-03-09T10:08:44.824Z,32.54
2019-03-09T10:09:41.511Z,31.51
2019-03-09T10:10:44.993Z,31.93
2019-03-09T10:11:44.873Z,31.31
2019-03-09T10:12:45.342Z,32.23
2019-03-09T10:13:42.271Z,32.03
2019-03-09T10:14:41.983Z,31.81
2019-03-09T10:15:41.461Z,32.03
2019-03-09T10:16:42.633Z,31.82
2019-03-09T10:17:47.223Z,31.82
2019-03-09T10:18:43.253Z,31.72
2019-03-09T10:19:41.393Z,31.51
2019-03-09T10:20:46.236Z,31.62
2019-03-09T10:21:41.431Z,31.51
2019-03-09T10:22:43.493Z,31.62
2019-03-09T10:23:46.563Z,31.72
2019-03-09T10:24:43.318Z,31.72
2019-03-09T10:25:41.380Z,31.51
2019-03-09T10:26:42.944Z,31.72
2019-03-09T10:27:44.854Z,31.72
2019-03-09T10:28:41.292Z,32.23
2019-03-09T10:29:42.161Z,32.03
2019-03-09T10:30:47.663Z,31.82
2019-03-09T10:31:42.523Z,31.72
2019-03-09T10:32:41.623Z,31.82
2019-03-09T10:33:46.845Z,31.82
2019-03-09T10:34:46.203Z,31.40
2019-03-09T10:35:41.390Z,31.50
2019-03-09T10:36:41.847Z,31.29
2019-03-09T10:37:41.732Z,31.40
2019-03-09T10:38:41.903Z,31.50
2019-03-09T10:39:44.913Z,31.09
2019-03-09T10:40:43.321Z,30.99
2019-03-09T10:41:41.704Z,31.71
2019-03-09T10:42:45.603Z,31.60
2019-03-09T10:43:41.252Z,31.60
2019-03-09T10:44:41.151Z,31.60
2019-03-09T10:45:43.072Z,31.60
2019-03-09T10:46:46.953Z,31.91
2019-03-09T10:47:42.595Z,31.79
2019-03-09T10:48:41.079Z,31.81
2019-03-09T10:49:42.664Z,31.50
2019-03-09T10:50:46.694Z,31.50
2019-03-09T10:51:46.665Z,31.50
2019-03-09T10:52:46.104Z,31.40
2019-03-09T10:53:44.672Z,31.29
2019-03-09T10:54:42.834Z,31.81
2019-03-09T10:55:42.640Z,32.00
2019-03-09T10:56:42.491Z,31.69
2019-03-09T10:57:43.794Z,31.79
2019-03-09T10:58:44.042Z,31.59
2019-03-09T10:59:41.523Z,32.00
2019-03-09T11:00:45.713Z,31.90
2019-03-09T11:01:45.713Z,31.28
2019-03-09T11:02:41.232Z,31.18
2019-03-09T11:03:41.003Z,31.38
2019-03-09T11:04:44.003Z,31.59
2019-03-09T11:05:41.927Z,31.69
2019-03-09T11:06:46.044Z,31.59
2019-03-09T11:07:42.403Z,31.28
2019-03-09T11:08:40.902Z,30.56
2019-03-09T11:09:44.344Z,30.56
2019-03-09T11:10:44.662Z,30.46
2019-03-09T11:11:41.334Z,30.55
2019-03-09T11:12:44.632Z,30.76
2019-03-09T11:13:51.953Z,30.76
2019-03-09T11:14:45.163Z,30.85
2019-03-09T11:15:40.799Z,30.44
2019-03-09T11:16:40.782Z,30.44
2019-03-09T11:17:45.303Z,31.06
2019-03-09T11:18:44.215Z,31.06
2019-03-09T11:19:41.154Z,30.65
2019-03-09T11:20:43.845Z,30.34
2019-03-09T11:21:41.284Z,30.96
2019-03-09T11:22:44.512Z,30.76
2019-03-09T11:23:40.887Z,30.85
2019-03-09T11:24:40.752Z,31.27
2019-03-09T11:25:40.983Z,31.46
2019-03-09T11:26:42.314Z,31.68
2019-03-09T11:27:40.722Z,31.66
2019-03-09T11:28:40.650Z,31.25
2019-03-09T11:29:43.874Z,30.43
2019-03-09T11:30:45.053Z,31.66
2019-03-09T11:31:40.783Z,31.57
2019-03-09T11:32:40.743Z,30.84
2019-03-09T11:33:41.183Z,31.57
2019-03-09T11:34:43.412Z,30.54
2019-03-09T11:35:40.632Z,31.05
2019-03-09T11:36:40.974Z,30.54
2019-03-09T11:37:43.772Z,30.74
2019-03-09T11:38:40.884Z,30.33
2019-03-09T11:39:41.392Z,30.63
2019-03-09T11:40:42.855Z,30.63
2019-03-09T11:41:45.491Z,30.54
2019-03-09T11:42:41.334Z,31.15
2019-03-09T11:43:43.824Z,30.33
2019-03-09T11:44:41.188Z,30.63
2019-03-09T11:45:40.642Z,31.05
2019-03-09T11:46:40.764Z,30.84
2019-03-09T11:47:40.814Z,31.25
2019-03-09T11:48:41.964Z,30.94
2019-03-09T11:49:40.419Z,30.94
2019-03-09T11:50:42.417Z,31.05
2019-03-09T11:51:41.074Z,30.84
2019-03-09T11:52:43.372Z,30.33
2019-03-09T11:53:44.154Z,30.55
2019-03-09T11:54:40.373Z,30.54
2019-03-09T11:55:40.725Z,30.43
2019-03-09T11:56:41.743Z,30.33
2019-03-09T11:57:40.592Z,30.43
2019-03-09T11:58:40.655Z,30.54
2019-03-09T11:59:40.845Z,30.33
2019-03-09T12:00:42.502Z,30.33
2019-03-09T12:01:40.724Z,30.33
2019-03-09T12:02:40.285Z,30.74
2019-03-09T12:03:43.013Z,30.63
2019-03-09T12:04:46.659Z,30.33
2019-03-09T12:05:41.663Z,30.33
2019-03-09T12:06:40.524Z,30.22
2019-03-09T12:07:43.057Z,30.33
2019-03-09T12:08:40.233Z,30.33
2019-03-09T12:09:40.192Z,30.84
2019-03-09T12:10:42.974Z,30.63
2019-03-09T12:11:40.370Z,29.92
2019-03-09T12:12:41.404Z,29.82
2019-03-09T12:13:41.673Z,30.02
2019-03-09T12:14:40.593Z,30.54
2019-03-09T12:15:40.402Z,30.54
2019-03-09T12:16:41.034Z,29.82
2019-03-09T12:17:42.425Z,31.05
2019-03-09T12:18:40.252Z,29.82
2019-03-09T12:19:40.190Z,29.92
2019-03-09T12:20:42.843Z,30.02
2019-03-09T12:21:41.235Z,29.61
2019-03-09T12:22:42.833Z,29.80
2019-03-09T12:23:40.305Z,30.42
2019-03-09T12:24:40.073Z,30.42
2019-03-09T12:25:41.957Z,30.12
2019-03-09T12:26:40.019Z,30.11
2019-03-09T12:27:40.695Z,30.11
2019-03-09T12:28:40.504Z,30.33
2019-03-09T12:29:40.064Z,30.21
2019-03-09T12:30:41.556Z,29.70
2019-03-09T12:31:39.973Z,29.50
2019-03-09T12:32:41.704Z,30.00
2019-03-09T12:33:40.003Z,29.91
2019-03-09T12:34:40.328Z,30.32
2019-03-09T12:35:44.170Z,30.21
2019-03-09T12:36:40.469Z,29.92
2019-03-09T12:37:39.998Z,30.11
2019-03-09T12:38:41.577Z,30.00
2019-03-09T12:39:39.881Z,30.00
2019-03-09T12:40:42.955Z,30.00
2019-03-09T12:41:40.028Z,30.11
2019-03-09T12:42:40.524Z,30.00
2019-03-09T12:43:40.433Z,29.91
2019-03-09T12:44:39.854Z,30.00
2019-03-09T12:45:40.224Z,30.11
2019-03-09T12:46:40.152Z,30.00
2019-03-09T12:47:40.475Z,29.91
2019-03-09T12:48:42.314Z,29.91
2019-03-09T12:49:40.294Z,30.00
2019-03-09T12:50:42.923Z,29.91
2019-03-09T12:51:40.114Z,29.70
2019-03-09T12:52:41.583Z,29.70